Time;durP1;ratioP1;P1;durP2;ratioP2;P2;SDS_P1;SDS_P2;PMS_P1;PMS_P2;Temp;Humidity;BMP_temperature;BMP_pressure;BME280_temperature;BME280_humidity;BME280_pressure;Samples;Min_cycle;Max_cycle;Signal;HPM_P1;HPM_P2
2022/09/26 00:01:23;;;;;;;2.40;1.08;;;13.40;76.50;;;;;;5070646;28;20021;-69
2022/09/26 00:03:52;;;;;;;1.67;1.15;;;13.40;76.50;;;;;;5058811;28;20154;-70
2022/09/26 00:06:18;;;;;;;1.50;1.20;;;13.40;76.60;;;;;;5070417;28;20059;-70
2022/09/26 00:08:45;;;;;;;2.05;1.58;;;13.40;76.60;;;;;;5062923;28;20035;-70
2022/09/26 00:11:14;;;;;;;1.73;1.08;;;13.40;76.50;;;;;;5067870;28;20051;-70
2022/09/26 00:13:41;;;;;;;1.65;1.23;;;13.40;76.60;;;;;;5070495;28;20472;-70
2022/09/26 00:16:09;;;;;;;1.15;1.05;;;13.40;76.60;;;;;;5070586;28;20597;-70
2022/09/26 00:18:34;;;;;;;2.08;1.10;;;13.40;76.70;;;;;;5069822;28;20028;-70
2022/09/26 00:21:03;;;;;;;1.65;0.88;;;13.40;76.80;;;;;;5067295;28;20032;-66
2022/09/26 00:23:29;;;;;;;1.17;1.00;;;13.40;76.80;;;;;;5070472;28;20031;-66
2022/09/26 00:25:57;;;;;;;1.17;0.90;;;13.40;76.90;;;;;;5070468;28;20032;-66
2022/09/26 00:28:23;;;;;;;1.05;0.95;;;13.40;76.90;;;;;;5069918;28;20016;-66
2022/09/26 00:30:49;;;;;;;1.05;0.95;;;13.30;77.00;;;;;;5051761;28;20097;-66
2022/09/26 00:33:14;;;;;;;1.90;1.15;;;13.40;77.20;;;;;;5070872;28;20056;-67
2022/09/26 00:35:47;;;;;;;2.75;1.38;;;13.40;77.20;;;;;;5051399;28;20036;-66
2022/09/26 00:38:13;;;;;;;1.58;0.80;;;13.40;77.20;;;;;;5070134;28;20028;-67
2022/09/26 00:40:38;;;;;;;2.03;1.20;;;13.50;77.20;;;;;;5069778;28;20736;-66
2022/09/26 00:43:26;;;;;;;4.45;0.95;;;13.50;77.20;;;;;;5069791;28;20028;-66
2022/09/26 00:45:53;;;;;;;1.25;1.02;;;13.60;77.20;;;;;;5067595;28;20056;-66
2022/09/26 00:48:19;;;;;;;0.85;0.80;;;13.50;78.00;;;;;;5070112;28;20030;-66
2022/09/26 00:50:47;;;;;;;5.47;1.63;;;13.50;77.40;;;;;;5051853;28;20036;-66
2022/09/26 00:53:23;;;;;;;1.05;0.95;;;13.60;77.50;;;;;;5069532;28;20021;-66
2022/09/26 00:55:56;;;;;;;2.63;1.88;;;13.60;77.50;;;;;;5064021;28;20566;-70
2022/09/26 00:58:27;;;;;;;1.63;1.10;;;13.60;77.50;;;;;;5069765;28;20388;-65
2022/09/26 01:00:54;;;;;;;2.08;1.00;;;13.70;77.60;;;;;;5069489;28;20619;-65
2022/09/26 01:03:21;;;;;;;0.90;0.88;;;13.70;77.70;;;;;;5069621;28;20078;-68
2022/09/26 01:05:47;;;;;;;1.80;1.20;;;13.70;77.80;;;;;;5069818;28;20111;-69
2022/09/26 01:08:16;;;;;;;1.10;0.85;;;13.70;77.80;;;;;;5070212;28;20028;-68
2022/09/26 01:10:44;;;;;;;1.27;1.00;;;13.70;77.70;;;;;;5068103;28;20027;-69
2022/09/26 01:13:10;;;;;;;0.60;0.50;;;13.80;77.70;;;;;;5068495;28;20452;-65
2022/09/26 01:15:36;;;;;;;3.97;1.38;;;13.70;77.70;;;;;;5068409;28;20090;-65
2022/09/26 01:18:02;;;;;;;1.08;0.90;;;13.70;77.70;;;;;;5069195;28;20028;-65
2022/09/26 01:20:49;;;;;;;1.00;0.70;;;13.80;77.80;;;;;;5069520;28;20562;-65
2022/09/26 01:23:40;;;;;;;1.00;0.90;;;13.80;77.80;;;;;;5069965;28;20032;-66
2022/09/26 01:26:12;;;;;;;1.42;1.25;;;13.80;77.70;;;;;;5069662;28;20066;-67
2022/09/26 01:29:26;;;;;;;3.10;1.73;;;13.70;78.00;;;;;;5068729;28;20025;-66
2022/09/26 01:35:07;;;;;;;1.10;0.90;;;13.60;78.40;;;;;;5069328;28;20659;-67
2022/09/26 01:38:07;;;;;;;1.80;1.25;;;13.60;78.30;;;;;;5050542;28;20028;-67
2022/09/26 01:40:41;;;;;;;1.25;1.02;;;13.70;78.50;;;;;;5068727;28;20419;-67
2022/09/26 01:43:19;;;;;;;0.88;0.70;;;13.60;78.50;;;;;;5068182;28;20052;-67
2022/09/26 01:45:57;;;;;;;2.78;1.48;;;13.70;78.30;;;;;;5068937;28;20162;-67
2022/09/26 01:48:37;;;;;;;1.30;1.08;;;13.70;78.30;;;;;;5068998;28;20036;-67
2022/09/26 01:51:14;;;;;;;2.13;1.20;;;13.70;78.30;;;;;;5068690;28;20522;-67
2022/09/26 01:53:40;;;;;;;6.97;1.33;;;13.70;78.30;;;;;;5056962;28;20029;-67
2022/09/26 01:56:13;;;;;;;1.20;0.80;;;13.70;78.40;;;;;;5069425;28;20379;-67
2022/09/26 01:58:58;;;;;;;4.70;1.10;;;13.80;78.40;;;;;;5060658;28;20435;-67
2022/09/26 02:01:28;;;;;;;1.77;1.38;;;13.80;78.50;;;;;;5067280;28;20025;-67
2022/09/26 02:03:58;;;;;;;2.05;1.23;;;13.70;78.60;;;;;;5069033;28;20503;-67
2022/09/26 02:06:38;;;;;;;0.63;0.57;;;13.70;78.70;;;;;;5067758;28;20106;-67
2022/09/26 02:09:13;;;;;;;5.15;1.27;;;13.80;78.60;;;;;;5068422;28;20025;-67
2022/09/26 02:11:42;;;;;;;0.95;0.70;;;13.70;78.60;;;;;;5050043;28;20029;-67
2022/09/26 02:14:14;;;;;;;0.98;0.95;;;13.80;78.60;;;;;;5068536;28;20031;-67
2022/09/26 02:16:53;;;;;;;1.02;1.00;;;13.80;78.50;;;;;;5067822;28;20480;-67
2022/09/26 02:19:23;;;;;;;1.77;0.73;;;13.80;78.40;;;;;;5050862;28;20059;-67
2022/09/26 02:21:49;;;;;;;0.80;0.60;;;13.70;78.40;;;;;;5064254;28;20032;-68
2022/09/26 02:24:15;;;;;;;1.95;1.23;;;13.70;78.40;;;;;;5050694;28;20043;-68
2022/09/26 02:26:43;;;;;;;0.70;0.63;;;13.80;79.00;;;;;;5068266;28;20079;-71
2022/09/26 02:29:12;;;;;;;1.38;0.85;;;13.80;78.30;;;;;;5067338;28;20029;-71
2022/09/26 02:31:45;;;;;;;0.85;0.82;;;13.80;78.30;;;;;;5049985;28;20041;-71
2022/09/26 02:34:11;;;;;;;0.95;0.90;;;13.80;78.10;;;;;;5067940;28;20252;-68
2022/09/26 02:36:37;;;;;;;1.92;1.40;;;13.80;78.10;;;;;;5068152;28;20507;-68
2022/09/26 02:39:03;;;;;;;3.25;1.45;;;13.70;77.80;;;;;;5047766;28;20163;-70
2022/09/26 02:41:55;;;;;;;2.70;0.90;;;13.70;77.80;;;;;;5058952;28;20040;-71
2022/09/26 02:44:57;;;;;;;1.17;1.08;;;13.70;77.60;;;;;;5067785;28;20484;-71
2022/09/26 02:47:30;;;;;;;1.65;1.08;;;13.70;77.60;;;;;;5063957;28;20032;-71
2022/09/26 02:50:07;;;;;;;1.17;0.90;;;13.80;77.50;;;;;;5050842;28;20254;-66
2022/09/26 02:52:57;;;;;;;1.38;1.00;;;13.80;77.10;;;;;;5067697;28;20016;-66
2022/09/26 02:55:35;;;;;;;2.50;1.80;;;13.80;77.10;;;;;;5062854;28;20032;-66
2022/09/26 02:58:34;;;;;;;2.10;1.35;;;13.70;76.50;;;;;;5067199;28;20078;-65
2022/09/26 03:01:11;;;;;;;1.13;0.60;;;13.70;76.70;;;;;;5068080;28;20107;-67
2022/09/26 03:03:50;;;;;;;3.22;1.27;;;13.70;77.00;;;;;;5067283;28;20033;-65
2022/09/26 03:06:20;;;;;;;1.02;0.98;;;13.70;76.70;;;;;;5067994;28;20028;-65
2022/09/26 03:08:48;;;;;;;1.00;0.93;;;13.70;76.60;;;;;;5049874;28;20049;-66
2022/09/26 03:11:19;;;;;;;2.03;1.35;;;13.80;76.60;;;;;;5068332;28;20050;-66
2022/09/26 03:13:46;;;;;;;2.35;1.25;;;13.80;76.50;;;;;;5049676;28;20024;-67
2022/09/26 03:16:13;;;;;;;5.55;0.88;;;13.80;76.40;;;;;;5067468;28;20095;-67
2022/09/26 03:19:04;;;;;;;3.17;1.17;;;13.80;76.90;;;;;;5067234;28;20029;-67
2022/09/26 03:21:31;;;;;;;3.67;1.25;;;13.80;76.20;;;;;;4990609;28;20069;-68
2022/09/26 03:23:57;;;;;;;1.88;1.45;;;13.70;76.20;;;;;;5067495;28;20024;-68
2022/09/26 03:26:26;;;;;;;26.63;1.83;;;13.70;76.30;;;;;;5067923;28;20329;-68
2022/09/26 03:28:52;;;;;;;1.00;0.70;;;13.60;76.30;;;;;;5067183;28;20496;-69
2022/09/26 03:31:23;;;;;;;3.08;1.50;;;13.60;76.40;;;;;;5067856;28;20435;-69
2022/09/26 03:33:50;;;;;;;1.20;1.00;;;13.60;76.40;;;;;;5067752;28;20375;-68
2022/09/26 03:36:16;;;;;;;1.70;1.00;;;13.50;76.50;;;;;;5065683;28;20044;-66
2022/09/26 03:38:42;;;;;;;4.00;1.33;;;13.50;76.70;;;;;;5067227;28;20059;-67
2022/09/26 03:41:08;;;;;;;3.72;1.30;;;13.50;76.80;;;;;;5051728;28;20052;-67
2022/09/26 03:43:35;;;;;;;5.40;0.98;;;13.50;76.80;;;;;;5066324;28;20017;-68
2022/09/26 03:46:05;;;;;;;2.38;1.20;;;13.50;77.00;;;;;;5068402;28;20081;-67
2022/09/26 03:48:32;;;;;;;1.55;1.38;;;13.40;77.00;;;;;;5070947;28;20035;-68
2022/09/26 03:51:10;;;;;;;3.28;1.52;;;13.40;77.20;;;;;;5070359;28;20379;-70
2022/09/26 03:53:37;;;;;;;3.53;1.20;;;13.40;77.30;;;;;;5058635;28;20043;-69
2022/09/26 03:56:08;;;;;;;2.08;1.20;;;13.40;77.40;;;;;;5071230;28;20341;-69
2022/09/26 03:58:34;;;;;;;2.35;1.13;;;13.40;77.50;;;;;;5070383;28;20020;-67
2022/09/26 04:01:05;;;;;;;1.92;1.23;;;13.30;77.50;;;;;;5053104;28;20093;-69
2022/09/26 04:03:35;;;;;;;4.75;1.40;;;13.30;77.60;;;;;;5070472;28;20154;-70
2022/09/26 04:06:01;;;;;;;1.77;0.85;;;13.30;78.30;;;;;;5051599;28;20618;-69
2022/09/26 04:08:27;;;;;;;2.83;1.10;;;13.30;77.80;;;;;;5070235;28;20103;-69
2022/09/26 04:10:58;;;;;;;2.25;0.93;;;13.30;77.90;;;;;;5071280;28;20093;-69
2022/09/26 04:13:24;;;;;;;1.10;0.93;;;13.30;77.80;;;;;;5071366;28;20013;-68
2022/09/26 04:15:57;;;;;;;1.85;1.13;;;13.30;78.00;;;;;;5052474;28;20434;-67
2022/09/26 04:18:23;;;;;;;1.58;1.08;;;13.30;78.00;;;;;;5070498;28;20472;-67
2022/09/26 04:20:49;;;;;;;1.52;1.20;;;13.20;78.00;;;;;;5064431;28;20025;-67
2022/09/26 04:23:14;;;;;;;1.60;1.08;;;13.20;77.90;;;;;;5071125;28;20024;-67
2022/09/26 04:25:40;;;;;;;1.10;1.00;;;13.20;77.90;;;;;;5068507;28;20119;-67
2022/09/26 04:28:07;;;;;;;2.10;1.00;;;13.20;77.80;;;;;;5069938;28;20025;-66
2022/09/26 04:30:32;;;;;;;1.48;0.85;;;13.10;77.60;;;;;;5070193;28;20024;-67
2022/09/26 04:32:58;;;;;;;4.68;0.80;;;13.10;77.70;;;;;;5051693;28;20124;-67
2022/09/26 04:35:24;;;;;;;1.38;1.00;;;13.10;77.60;;;;;;5065956;28;20093;-67
2022/09/26 04:37:50;;;;;;;1.30;0.75;;;13.10;77.60;;;;;;5069638;28;20032;-70
2022/09/26 04:40:16;;;;;;;0.90;0.82;;;13.20;77.50;;;;;;5070998;28;20055;-69
2022/09/26 04:42:41;;;;;;;2.35;1.40;;;13.10;77.40;;;;;;5046996;28;20503;-69
2022/09/26 04:45:07;;;;;;;1.40;1.25;;;13.10;77.50;;;;;;5064628;28;20157;-69
2022/09/26 04:47:33;;;;;;;2.05;0.88;;;13.10;77.20;;;;;;5059556;28;20044;-69
2022/09/26 04:49:59;;;;;;;0.95;0.82;;;13.10;77.30;;;;;;5068501;28;20063;-70
2022/09/26 04:52:25;;;;;;;3.35;1.17;;;13.10;77.20;;;;;;5066847;28;20437;-69
2022/09/26 04:54:51;;;;;;;1.08;0.75;;;13.10;77.10;;;;;;5064471;28;20117;-70
2022/09/26 04:57:16;;;;;;;3.42;1.15;;;13.10;77.70;;;;;;5060812;28;20491;-69
2022/09/26 04:59:42;;;;;;;1.95;1.35;;;13.10;77.00;;;;;;5065910;28;20029;-67
2022/09/26 05:02:08;;;;;;;2.72;0.95;;;13.10;77.00;;;;;;5065619;28;20382;-68
2022/09/26 05:04:34;;;;;;;0.60;0.60;;;13.10;77.10;;;;;;5065910;28;20115;-68
2022/09/26 05:07:00;;;;;;;0.95;0.60;;;13.10;77.00;;;;;;5061460;28;20036;-67
2022/09/26 05:09:26;;;;;;;0.65;0.63;;;13.10;76.90;;;;;;5049591;28;20181;-68
2022/09/26 05:11:51;;;;;;;2.35;1.02;;;13.10;76.90;;;;;;5061643;28;20024;-68
2022/09/26 05:14:17;;;;;;;0.98;0.80;;;13.10;77.00;;;;;;5066398;28;20130;-68
2022/09/26 05:16:43;;;;;;;4.95;0.90;;;13.10;77.00;;;;;;5068678;28;20035;-67
2022/09/26 05:19:09;;;;;;;7.45;1.08;;;13.10;76.70;;;;;;5069737;28;20033;-67
2022/09/26 05:21:35;;;;;;;0.50;0.50;;;13.20;76.70;;;;;;5068373;28;20169;-68
2022/09/26 05:26:48;;;;;;;0.95;0.85;;;13.20;76.80;;;;;;5069697;28;20051;-70
2022/09/26 05:29:14;;;;;;;2.33;1.10;;;13.20;76.70;;;;;;5066919;28;20013;-69
2022/09/26 05:31:40;;;;;;;1.92;0.82;;;13.10;76.70;;;;;;5050834;28;20777;-67
2022/09/26 05:34:11;;;;;;;0.80;0.68;;;13.10;76.70;;;;;;5067386;28;20117;-67
2022/09/26 05:36:37;;;;;;;0.68;0.68;;;13.10;76.80;;;;;;5050683;28;20111;-69
2022/09/26 05:39:04;;;;;;;1.35;0.80;;;13.10;76.90;;;;;;5068522;28;20111;-69
2022/09/26 05:41:32;;;;;;;0.90;0.55;;;13.10;77.00;;;;;;5069282;28;20044;-69
2022/09/26 05:43:58;;;;;;;6.05;1.00;;;13.10;77.10;;;;;;5061300;28;20108;-69
2022/09/26 05:46:26;;;;;;;0.57;0.52;;;13.10;77.10;;;;;;5068588;28;20037;-67
2022/09/26 05:48:52;;;;;;;1.23;0.80;;;13.10;77.30;;;;;;5050822;28;20028;-67
2022/09/26 05:51:19;;;;;;;7.72;1.02;;;13.10;77.30;;;;;;5068406;28;20173;-68
2022/09/26 05:53:47;;;;;;;0.77;0.68;;;13.10;77.20;;;;;;5051945;28;20021;-67
2022/09/26 05:56:15;;;;;;;0.77;0.70;;;13.00;77.30;;;;;;5068241;28;20020;-67
2022/09/26 05:58:41;;;;;;;0.98;0.75;;;13.00;77.40;;;;;;5067909;28;20028;-68
2022/09/26 06:01:11;;;;;;;4.80;0.90;;;13.00;77.40;;;;;;5068409;28;20363;-67
2022/09/26 06:03:37;;;;;;;2.08;1.08;;;13.10;77.50;;;;;;5067804;28;20035;-68
2022/09/26 06:06:09;;;;;;;0.80;0.80;;;13.00;77.50;;;;;;5050018;28;20115;-68
2022/09/26 06:08:36;;;;;;;0.80;0.80;;;12.90;77.60;;;;;;5067558;28;20043;-67
2022/09/26 06:11:11;;;;;;;2.25;1.10;;;12.90;77.90;;;;;;5059730;28;20630;-67
2022/09/26 06:13:37;;;;;;;1.42;0.95;;;12.90;78.00;;;;;;5068329;28;20112;-68
2022/09/26 06:16:05;;;;;;;1.95;1.30;;;12.90;78.20;;;;;;5068460;28;20049;-67
2022/09/26 06:18:32;;;;;;;1.92;0.90;;;12.90;78.30;;;;;;5067837;28;20039;-68
2022/09/26 06:21:06;;;;;;;3.50;0.80;;;12.90;78.30;;;;;;5063924;28;20028;-68
2022/09/26 06:23:33;;;;;;;1.10;0.90;;;12.90;78.10;;;;;;5068027;28;20029;-68
2022/09/26 06:25:59;;;;;;;0.73;0.70;;;12.90;78.10;;;;;;5068119;28;20514;-68
2022/09/26 06:28:29;;;;;;;0.60;0.60;;;13.00;78.10;;;;;;5068262;28;20384;-68
2022/09/26 06:30:55;;;;;;;1.25;0.70;;;13.00;78.10;;;;;;5065098;28;20841;-67
2022/09/26 06:33:22;;;;;;;0.70;0.70;;;13.00;78.00;;;;;;5068451;28;20025;-67
2022/09/26 06:36:05;;;;;;;1.08;0.80;;;13.00;77.90;;;;;;5068272;28;20501;-67
2022/09/26 06:38:31;;;;;;;1.85;1.17;;;13.00;77.70;;;;;;5064423;28;20029;-67
2022/09/26 06:40:57;;;;;;;1.33;0.98;;;13.00;77.90;;;;;;5067803;28;20432;-67
2022/09/26 06:43:23;;;;;;;1.83;1.00;;;13.00;78.00;;;;;;5065063;28;20028;-67
2022/09/26 06:45:49;;;;;;;1.65;0.90;;;13.00;78.30;;;;;;5049765;28;20032;-68
2022/09/26 06:48:21;;;;;;;0.63;0.60;;;13.00;78.20;;;;;;5050577;28;20047;-68
2022/09/26 06:50:54;;;;;;;4.22;1.55;;;13.10;78.00;;;;;;5068346;28;20020;-69
2022/09/26 06:53:20;;;;;;;1.52;0.80;;;13.10;78.00;;;;;;5066104;28;20017;-68
2022/09/26 06:55:45;;;;;;;2.33;1.00;;;13.10;78.00;;;;;;5043417;28;20028;-68
2022/09/26 06:58:11;;;;;;;0.88;0.82;;;13.10;77.90;;;;;;5068317;28;20124;-70
2022/09/26 07:00:39;;;;;;;1.08;0.90;;;13.20;78.00;;;;;;5067514;28;20061;-69
2022/09/26 07:03:04;;;;;;;1.10;1.00;;;13.20;78.10;;;;;;5049959;28;20059;-70
2022/09/26 07:05:30;;;;;;;0.70;0.70;;;13.20;78.10;;;;;;5066227;28;20410;-70
2022/09/26 07:07:57;;;;;;;2.83;1.30;;;13.20;78.00;;;;;;5067387;28;20045;-69
2022/09/26 07:10:23;;;;;;;1.77;0.75;;;13.20;78.20;;;;;;5050426;28;20020;-69
2022/09/26 07:12:49;;;;;;;3.13;1.17;;;13.20;78.20;;;;;;5068212;28;20395;-69
2022/09/26 07:15:17;;;;;;;0.57;0.52;;;13.20;78.20;;;;;;5069288;28;20024;-70
2022/09/26 07:17:44;;;;;;;4.88;1.60;;;13.20;78.10;;;;;;5071162;28;20514;-69
2022/09/26 07:20:16;;;;;;;1.25;1.05;;;13.20;78.00;;;;;;5070031;28;20036;-69
2022/09/26 07:22:42;;;;;;;0.70;0.70;;;13.10;78.00;;;;;;5053661;28;20033;-69
2022/09/26 07:25:08;;;;;;;1.10;1.00;;;13.10;78.20;;;;;;5071396;28;20112;-69
2022/09/26 07:27:34;;;;;;;1.40;1.30;;;13.10;78.20;;;;;;5060644;28;20173;-68
2022/09/26 07:30:00;;;;;;;1.45;1.35;;;13.10;78.30;;;;;;5066024;28;20029;-65
2022/09/26 07:32:29;;;;;;;2.17;1.15;;;13.10;78.40;;;;;;5052537;28;20085;-65
2022/09/26 07:34:58;;;;;;;5.05;1.27;;;13.10;78.50;;;;;;5071805;28;20020;-65
2022/09/26 07:37:24;;;;;;;4.78;1.60;;;13.00;78.70;;;;;;5051277;28;20029;-67
2022/09/26 07:39:53;;;;;;;1.55;1.10;;;13.00;79.30;;;;;;5072142;28;20051;-70
2022/09/26 07:42:18;;;;;;;1.23;1.05;;;13.00;78.70;;;;;;5053761;28;20033;-68
2022/09/26 07:44:44;;;;;;;3.53;1.25;;;13.10;78.90;;;;;;5066648;28;20083;-68
2022/09/26 07:50:13;;;;;;;1.92;1.02;;;13.20;78.80;;;;;;5071857;28;20078;-69
2022/09/26 07:52:48;;;;;;;1.15;1.10;;;13.20;78.50;;;;;;5069322;28;20024;-68
2022/09/26 07:55:20;;;;;;;3.03;1.10;;;13.20;78.60;;;;;;5063543;28;20021;-68
2022/09/26 07:57:48;;;;;;;1.73;1.10;;;13.20;78.70;;;;;;5071112;28;20028;-68
2022/09/26 08:00:16;;;;;;;0.73;0.70;;;13.20;78.80;;;;;;5070884;28;20028;-69
2022/09/26 08:02:45;;;;;;;0.80;0.80;;;13.30;78.80;;;;;;5070834;28;20089;-70
2022/09/26 08:05:16;;;;;;;1.13;1.08;;;13.30;78.70;;;;;;5070646;28;20048;-69
2022/09/26 08:07:42;;;;;;;1.33;0.63;;;13.40;78.60;;;;;;5047159;28;20043;-69
2022/09/26 08:10:20;;;;;;;0.98;0.77;;;13.50;78.50;;;;;;5070522;28;20384;-69
2022/09/26 08:12:47;;;;;;;1.63;1.27;;;13.50;78.30;;;;;;5053019;28;20086;-69
2022/09/26 08:15:13;;;;;;;1.63;0.85;;;13.50;78.30;;;;;;5069914;28;20370;-69
2022/09/26 08:17:39;;;;;;;2.53;1.13;;;13.50;78.40;;;;;;5069488;28;20028;-69
2022/09/26 08:20:06;;;;;;;2.78;1.15;;;13.50;79.00;;;;;;5067402;28;20475;-69
2022/09/26 08:22:32;;;;;;;2.10;1.20;;;13.50;78.30;;;;;;5070150;28;20085;-69
2022/09/26 08:24:59;;;;;;;3.28;1.33;;;13.50;77.90;;;;;;5052411;28;20033;-69
2022/09/26 08:27:25;;;;;;;4.47;1.40;;;13.50;77.90;;;;;;5051516;28;20479;-69
2022/09/26 08:29:51;;;;;;;2.83;1.27;;;13.60;78.20;;;;;;5070882;28;20073;-68
2022/09/26 08:32:18;;;;;;;2.90;1.20;;;13.60;78.00;;;;;;5070526;28;20033;-69
2022/09/26 08:34:45;;;;;;;0.77;0.63;;;13.50;77.90;;;;;;5070837;28;20021;-69
2022/09/26 08:37:11;;;;;;;5.82;1.15;;;13.50;77.70;;;;;;5067650;28;20044;-69
2022/09/26 08:39:38;;;;;;;2.22;1.15;;;13.60;77.70;;;;;;5064523;28;20029;-69
2022/09/26 08:42:28;;;;;;;2.17;0.73;;;13.50;77.80;;;;;;5061942;28;20455;-69
2022/09/26 08:48:31;;;;;;;2.67;1.48;;;13.60;77.90;;;;;;5026133;28;20040;-69
2022/09/26 08:51:11;;;;;;;0.80;0.80;;;13.60;77.80;;;;;;5026574;28;20164;-69
2022/09/26 08:53:51;;;;;;;1.40;0.90;;;13.70;77.70;;;;;;5042974;28;20063;-72
2022/09/26 08:56:34;;;;;;;1.05;0.82;;;13.70;77.60;;;;;;5044867;28;20074;-68
2022/09/26 08:59:02;;;;;;;4.47;1.27;;;13.80;77.40;;;;;;5063051;28;20029;-72
2022/09/26 09:01:30;;;;;;;0.80;0.80;;;13.80;77.50;;;;;;5069540;28;20032;-71
2022/09/26 09:04:14;;;;;;;1.48;1.00;;;13.80;77.80;;;;;;5051635;28;20391;-71
2022/09/26 09:06:40;;;;;;;4.10;1.67;;;13.80;77.60;;;;;;5068046;28;20572;-76
2022/09/26 09:09:06;;;;;;;1.23;1.08;;;13.70;77.60;;;;;;5069366;28;20060;-79
2022/09/26 09:11:54;;;;;;;0.85;0.85;;;13.70;77.70;;;;;;5031527;28;20076;-77
2022/09/26 09:14:20;;;;;;;3.08;1.25;;;13.70;78.00;;;;;;5043553;28;20035;-82
2022/09/26 09:17:21;;;;;;;0.75;0.73;;;13.70;78.60;;;;;;5066643;28;20036;-73
2022/09/26 09:19:52;;;;;;;1.52;0.90;;;13.70;78.50;;;;;;5046245;28;20071;-77
2022/09/26 09:22:26;;;;;;;3.03;0.90;;;13.70;78.70;;;;;;5063925;28;20029;-75
2022/09/26 09:24:55;;;;;;;6.35;1.20;;;13.70;78.80;;;;;;5064823;28;20028;-75
2022/09/26 09:27:38;;;;;;;4.72;1.25;;;13.60;79.10;;;;;;5067363;28;20702;-75
2022/09/26 09:30:25;;;;;;;1.48;1.10;;;13.60;79.50;;;;;;5051456;28;20025;-74
2022/09/26 09:33:04;;;;;;;1.85;1.00;;;13.70;79.60;;;;;;5054789;28;20112;-74
2022/09/26 09:36:07;;;;;;;2.50;0.73;;;13.70;79.80;;;;;;5049097;28;20463;-74
2022/09/26 09:38:36;;;;;;;1.00;0.80;;;13.70;79.80;;;;;;5064471;28;20032;-72
2022/09/26 09:41:04;;;;;;;1.27;0.80;;;13.70;80.20;;;;;;5068216;28;20039;-72
2022/09/26 09:43:38;;;;;;;1.40;0.93;;;13.70;80.40;;;;;;5047934;28;20067;-72
2022/09/26 09:46:29;;;;;;;3.25;1.13;;;13.70;80.60;;;;;;5063345;28;20097;-70
2022/09/26 09:49:07;;;;;;;3.50;1.55;;;13.70;80.80;;;;;;5050260;28;20531;-71
2022/09/26 09:51:51;;;;;;;4.45;1.75;;;13.70;81.00;;;;;;5050593;28;20063;-73
2022/09/26 09:54:29;;;;;;;2.05;1.10;;;13.70;81.20;;;;;;5047486;28;20097;-74
2022/09/26 09:57:07;;;;;;;1.30;1.08;;;13.70;81.30;;;;;;5049338;28;20506;-75
2022/09/26 09:59:53;;;;;;;1.00;0.90;;;13.70;81.40;;;;;;5062002;28;20021;-71
2022/09/26 10:02:42;;;;;;;4.00;1.33;;;13.80;81.60;;;;;;5062145;28;20490;-71
2022/09/26 10:05:24;;;;;;;1.42;1.20;;;13.90;81.60;;;;;;5066795;28;20127;-71
2022/09/26 10:07:56;;;;;;;2.55;1.63;;;13.90;81.70;;;;;;5063145;28;20119;-71
2022/09/26 10:10:44;;;;;;;1.77;1.20;;;13.80;81.70;;;;;;5067834;28;20024;-71
2022/09/26 10:13:10;;;;;;;1.77;0.70;;;13.80;81.90;;;;;;5066894;28;20029;-71
2022/09/26 10:15:59;;;;;;;4.05;1.67;;;13.80;81.80;;;;;;5066848;28;20499;-71
2022/09/26 10:18:25;;;;;;;3.25;1.63;;;13.90;81.70;;;;;;5064652;28;20451;-71
2022/09/26 10:20:56;;;;;;;4.30;1.65;;;13.80;81.80;;;;;;5067078;28;20036;-71
2022/09/26 10:23:21;;;;;;;1.30;0.82;;;13.80;82.00;;;;;;5067830;28;20107;-71
2022/09/26 10:25:50;;;;;;;2.88;1.38;;;13.80;82.00;;;;;;5068636;28;20124;-71
2022/09/26 10:28:54;;;;;;;1.77;1.30;;;13.80;82.10;;;;;;5046385;28;20035;-71
2022/09/26 10:31:24;;;;;;;2.10;1.23;;;13.80;82.10;;;;;;5008658;28;20035;-71
2022/09/26 10:33:58;;;;;;;1.95;1.40;;;13.70;82.50;;;;;;5064969;28;20020;-72
2022/09/26 10:36:50;;;;;;;3.00;0.90;;;13.70;82.50;;;;;;5063342;28;20107;-72
2022/09/26 10:42:01;;;;;;;2.38;1.27;;;13.80;82.70;;;;;;5060577;28;20044;-73
2022/09/26 10:44:35;;;;;;;2.45;1.40;;;13.70;82.80;;;;;;5066370;28;20036;-74
2022/09/26 10:47:08;;;;;;;1.65;1.13;;;13.80;82.80;;;;;;5064094;28;20024;-73
2022/09/26 10:49:56;;;;;;;2.03;1.55;;;13.70;83.30;;;;;;5068733;28;20029;-74
2022/09/26 10:52:31;;;;;;;1.52;0.93;;;13.70;82.90;;;;;;5072215;28;20024;-74
2022/09/26 10:55:18;;;;;;;1.55;1.45;;;13.70;83.10;;;;;;5065622;28;20021;-73
2022/09/26 10:58:05;;;;;;;9.95;1.52;;;13.80;83.20;;;;;;5069011;28;20033;-75
2022/09/26 11:00:36;;;;;;;1.45;0.98;;;13.80;83.40;;;;;;5063369;28;20033;-71
2022/09/26 11:03:23;;;;;;;2.55;1.52;;;13.70;83.60;;;;;;5073079;28;20025;-74
2022/09/26 11:05:55;;;;;;;1.67;1.00;;;13.70;83.60;;;;;;5073965;28;20047;-73
2022/09/26 11:08:23;;;;;;;5.37;1.70;;;13.70;83.80;;;;;;5070589;28;20033;-72
2022/09/26 11:10:51;;;;;;;4.28;1.38;;;13.70;83.70;;;;;;5073965;28;20496;-72
2022/09/26 11:13:28;;;;;;;1.58;1.30;;;13.70;83.70;;;;;;5068197;28;20029;-72
2022/09/26 11:16:08;;;;;;;2.92;1.58;;;13.80;83.70;;;;;;5062629;28;20029;-72
2022/09/26 11:19:04;;;;;;;1.55;1.20;;;13.80;83.80;;;;;;5074132;28;20037;-72
2022/09/26 11:21:58;;;;;;;1.70;1.10;;;13.80;83.70;;;;;;5072833;28;20039;-72
2022/09/26 11:24:41;;;;;;;1.38;1.25;;;13.80;83.80;;;;;;5072076;28;20028;-72
2022/09/26 11:27:44;;;;;;;1.77;1.33;;;13.80;84.00;;;;;;5072414;28;20044;-72
2022/09/26 11:30:18;;;;;;;2.75;1.05;;;13.80;84.30;;;;;;5061902;28;20544;-74
2022/09/26 11:32:51;;;;;;;1.85;1.00;;;13.80;84.80;;;;;;5051625;28;20112;-73
2022/09/26 11:35:32;;;;;;;0.98;0.80;;;13.80;84.20;;;;;;5073195;28;20035;-72
2022/09/26 11:38:20;;;;;;;2.45;0.82;;;13.80;84.30;;;;;;5062771;28;20027;-72
2022/09/26 11:41:01;;;;;;;3.22;1.85;;;13.80;84.50;;;;;;5062875;28;20056;-72
2022/09/26 11:43:39;;;;;;;1.40;0.95;;;13.80;84.60;;;;;;5067377;28;20098;-77
2022/09/26 11:46:08;;;;;;;1.25;1.00;;;13.70;84.70;;;;;;5071378;28;20488;-81
2022/09/26 11:49:04;;;;;;;0.73;0.63;;;13.70;85.10;;;;;;5073942;28;20488;-76
2022/09/26 11:51:45;;;;;;;2.08;1.33;;;13.70;85.20;;;;;;5071413;28;20039;-74
2022/09/26 11:54:37;;;;;;;1.10;1.00;;;13.60;85.40;;;;;;5074116;28;20036;-74
2022/09/26 11:57:06;;;;;;;2.80;1.42;;;13.60;85.40;;;;;;5052423;28;20059;-76
2022/09/26 12:00:25;;;;;;;1.83;1.50;;;13.60;85.50;;;;;;5074254;28;20036;-75
2022/09/26 12:03:15;;;;;;;0.60;0.60;;;13.60;85.40;;;;;;4994039;28;20042;-76
2022/09/26 12:06:18;;;;;;;0.68;0.60;;;13.60;85.60;;;;;;5052437;28;20036;-76
2022/09/26 12:08:59;;;;;;;4.00;1.40;;;13.60;85.50;;;;;;5070832;28;20056;-73
2022/09/26 12:11:54;;;;;;;1.05;0.75;;;13.70;85.60;;;;;;5064679;28;20024;-73
2022/09/26 12:14:55;;;;;;;1.15;1.00;;;13.70;85.60;;;;;;5009519;28;20032;-74
2022/09/26 12:17:45;;;;;;;1.08;0.55;;;13.70;85.80;;;;;;5040163;28;20049;-74
2022/09/26 12:20:41;;;;;;;1.40;0.90;;;13.70;85.60;;;;;;5051583;28;20102;-73
2022/09/26 12:23:09;;;;;;;0.93;0.88;;;13.80;85.70;;;;;;5067282;28;20104;-73
2022/09/26 12:25:59;;;;;;;1.20;0.82;;;13.70;85.90;;;;;;5069252;28;20028;-73
2022/09/26 12:28:48;;;;;;;2.78;0.75;;;13.70;86.00;;;;;;5057243;28;20072;-72
2022/09/26 12:31:30;;;;;;;0.90;0.85;;;13.70;85.90;;;;;;5050670;28;20039;-71
2022/09/26 12:34:31;;;;;;;1.10;1.00;;;13.70;86.20;;;;;;5069007;28;20109;-72
2022/09/26 12:37:06;;;;;;;1.52;0.80;;;13.70;86.30;;;;;;5065236;28;20027;-74
2022/09/26 12:39:53;;;;;;;1.30;1.00;;;13.70;86.40;;;;;;5062650;28;20364;-70
2022/09/26 12:42:44;;;;;;;1.85;1.05;;;13.70;86.20;;;;;;5061555;28;20078;-71
2022/09/26 12:45:54;;;;;;;0.95;0.93;;;13.70;86.20;;;;;;5068173;28;20045;-72
2022/09/26 12:48:52;;;;;;;2.22;1.05;;;13.70;86.20;;;;;;5065347;28;20047;-72
2022/09/26 12:51:21;;;;;;;1.00;0.90;;;13.70;86.30;;;;;;5050553;28;20032;-71
2022/09/26 12:54:18;;;;;;;0.82;0.70;;;13.70;86.40;;;;;;5068481;28;20475;-71
2022/09/26 12:57:17;;;;;;;0.77;0.77;;;13.70;86.40;;;;;;5050503;28;20090;-72
2022/09/26 13:00:11;;;;;;;0.98;0.88;;;13.70;86.60;;;;;;5055322;28;20045;-71
2022/09/26 13:02:55;;;;;;;1.10;0.73;;;13.70;86.40;;;;;;5047553;28;20079;-71
2022/09/26 13:05:58;;;;;;;0.63;0.63;;;13.70;86.60;;;;;;5068387;28;20039;-71
2022/09/26 13:08:30;;;;;;;0.60;0.40;;;13.80;86.50;;;;;;5047651;28;20034;-72
2022/09/26 13:11:27;;;;;;;0.60;0.57;;;13.80;86.40;;;;;;5067052;28;20581;-72
2022/09/26 13:14:11;;;;;;;1.70;0.65;;;13.90;86.20;;;;;;5040729;28;20029;-72
2022/09/26 13:17:04;;;;;;;3.10;1.35;;;13.90;86.10;;;;;;5039169;28;20070;-74
2022/09/26 13:20:00;;;;;;;4.35;0.68;;;13.90;86.20;;;;;;5064970;28;20021;-74
2022/09/26 13:22:41;;;;;;;1.45;0.80;;;13.90;86.20;;;;;;5007512;28;20059;-74
2022/09/26 13:25:10;;;;;;;1.05;0.57;;;13.90;86.30;;;;;;5062069;28;20472;-74
2022/09/26 13:28:03;;;;;;;1.50;0.80;;;13.80;86.40;;;;;;5056513;28;20094;-74
2022/09/26 13:30:39;;;;;;;0.80;0.73;;;13.90;86.50;;;;;;5067770;28;20029;-72
2022/09/26 13:33:30;;;;;;;0.85;0.80;;;13.80;86.50;;;;;;5060724;28;20023;-72
2022/09/26 13:35:58;;;;;;;1.70;0.52;;;13.90;86.50;;;;;;5065762;28;20028;-72
2022/09/26 13:38:32;;;;;;;0.75;0.60;;;13.90;86.50;;;;;;5043881;28;20021;-72